^^
Grace C. Lehan Memorial Weather Station Historical Data
Daily Summary for September 12, 2021 Units:  English    Metric   Both
Daily Weekly Monthly Yearly
  High: Low: Average:
Temperature: 84.3 °F 60.5 °F 72.9 °F
Dew Point: 70.4 °F 58 °F 65.1 °F
Humidity: 92% 62% 78%
Wind Speed: 2.8mph 0mph 0.6mph
Wind Gust: 14mph - -
Wind- - WSW
Pressure: 30.08 in 29.92 in -
Precipitation: 0.00 in    
 
 
Tabular Data for September 12, 2021
Time Temperature Dew Point Pressure Wind Wind Speed Wind Gust Humidity Rainfall Rate (Hourly) solar
00:09 63.6 °F 60.6 °F 30.08 in Calm     90% 0.00 in 0 W/m2
00:14 63.5 °F 60.5 °F 30.08 in Calm     90% 0.00 in 0 W/m2
00:19 63.4 °F 60.6 °F 30.08 in Calm     90.3% 0.00 in 0 W/m2
00:24 63.4 °F 60.7 °F 30.08 in Calm     91% 0.00 in 0 W/m2
00:29 63.3 °F 60.6 °F 30.08 in Calm     91% 0.00 in 0 W/m2
00:34 63.1 °F 60.5 °F 30.08 in Calm     91% 0.00 in 0 W/m2
00:39 63 °F 60.4 °F 30.08 in Calm     91% 0.00 in 0 W/m2
00:44 62.9 °F 60.2 °F 30.08 in Calm     91% 0.00 in 0 W/m2
00:49 62.8 °F 60.1 °F 30.08 in Calm     91% 0.00 in 0 W/m2
00:53 62.6 °F 60 °F 30.08 in Calm     91% 0.00 in 0 W/m2
00:59 62.5 °F 59.8 °F 30.08 in Calm     91% 0.00 in 0 W/m2
01:04 62.3 °F 59.7 °F 30.08 in Calm     91% 0.00 in 0 W/m2
01:09 62.2 °F 59.6 °F 30.08 in Calm     91% 0.00 in 0 W/m2
01:14 62.1 °F 59.4 °F 30.08 in Calm     91% 0.00 in 0 W/m2
01:19 62 °F 59.3 °F 30.08 in Calm     91% 0.00 in 0 W/m2
01:24 61.8 °F 59.2 °F 30.08 in Calm     91% 0.00 in 0 W/m2
01:29 61.7 °F 59 °F 30.08 in Calm     91% 0.00 in 0 W/m2
01:34 61.6 °F 58.9 °F 30.08 in Calm     91% 0.00 in 0 W/m2
01:39 61.4 °F 58.8 °F 30.08 in Calm     91% 0.00 in 0 W/m2
01:44 61.3 °F 58.7 °F 30.08 in Calm     91% 0.00 in 0 W/m2
01:49 61.2 °F 58.5 °F 30.08 in Calm     91% 0.00 in 0 W/m2
01:54 61 °F 58.4 °F 30.08 in Calm     91% 0.00 in 0 W/m2
01:59 60.9 °F 58.3 °F 30.08 in Calm     91% 0.00 in 0 W/m2
02:04 60.8 °F 58.2 °F 30.08 in Calm     91.2% 0.00 in 0 W/m2
02:09 60.7 °F 58.1 °F 30.08 in Calm     91.3% 0.00 in 0 W/m2
02:14 60.6 °F 58.3 °F 30.08 in Calm     92% 0.00 in 0 W/m2
02:19 60.5 °F 58.2 °F 30.08 in Calm     92% 0.00 in 0 W/m2
02:23 60.5 °F 58.2 °F 30.08 in Calm     92% 0.00 in 0 W/m2
02:29 60.5 °F 58.2 °F 30.08 in Calm     92% 0.00 in 0 W/m2
02:34 60.5 °F 58.2 °F 30.08 in Calm     92% 0.00 in 0 W/m2
02:39 60.5 °F 58.2 °F 30.08 in Calm     92% 0.00 in 0 W/m2
02:44 60.6 °F 58.3 °F 30.08 in Calm     92% 0.00 in 0 W/m2
02:49 60.7 °F 58.1 °F 30.08 in Calm     91.2% 0.00 in 0 W/m2
02:54 60.7 °F 58.1 °F 30.08 in Calm     91% 0.00 in 0 W/m2
02:59 60.8 °F 58.2 °F 30.08 in Calm     91% 0.00 in 0 W/m2
03:04 60.9 °F 58.2 °F 30.08 in Calm     90.8% 0.00 in 0 W/m2
03:09 60.9 °F 58 °F 30.08 in Calm     90% 0.00 in 0 W/m2
03:14 61 °F 58 °F 30.08 in Calm     90% 0.00 in 0 W/m2
03:19 61 °F 58.1 °F 30.07 in Calm     90% 0.00 in 0 W/m2
03:24 61 °F 58.1 °F 30.07 in Calm     90% 0.00 in 0 W/m2
03:29 61 °F 58.1 °F 30.07 in Calm     90% 0.00 in 0 W/m2
03:34 61.1 °F 58.3 °F 30.07 in Calm     90.4% 0.00 in 0 W/m2
03:39 61.3 °F 58.4 °F 30.07 in Calm     90% 0.00 in 0 W/m2
03:44 61.6 °F 58.6 °F 30.07 in SSW 0.2 mph 2 mph 90% 0.00 in 0 W/m2
03:49 61.9 °F 58.9 °F 30.07 in Calm   2 mph 90% 0.00 in 0 W/m2
03:54 62.2 °F 59 °F 30.06 in SW 0.3 mph 5 mph 89.5% 0.00 in 0 W/m2
03:59 62.4 °F 59.1 °F 30.06 in WSW 0.1 mph 5 mph 89% 0.00 in 0 W/m2
04:00 62.5 °F 59.2 °F 30.06 in WSW 1 mph 5 mph 89% 0.00 in 0 W/m2
04:09 63.1 °F 59.8 °F 30.06 in WSW 1.8 mph 4 mph 88.9% 0.00 in 0 W/m2
04:14 63.3 °F 59.7 °F 30.06 in WSW 0.2 mph 4 mph 88% 0.00 in 0 W/m2
04:19 63.6 °F 59.9 °F 30.06 in WSW 0.2 mph 4 mph 87.7% 0.00 in 0 W/m2
04:24 63.9 °F 59.8 °F 30.06 in WSW 0.1 mph 4 mph 86.7% 0.00 in 0 W/m2
04:29 64.1 °F 59.8 °F 30.06 in WSW 0.1 mph 4 mph 86% 0.00 in 0 W/m2
04:34 64.3 °F 60 °F 30.06 in Calm   4 mph 86% 0.00 in 0 W/m2
04:39 64.4 °F 59.8 °F 30.06 in Calm   2 mph 85.1% 0.00 in 0 W/m2
04:44 64.4 °F 59.8 °F 30.05 in South 0.1 mph 2 mph 85% 0.00 in 0 W/m2
04:49 64.5 °F 59.9 °F 30.05 in Calm   2 mph 85% 0.00 in 0 W/m2
04:54 64.5 °F 59.9 °F 30.05 in Calm   2 mph 85% 0.00 in 0 W/m2
04:59 64.4 °F 59.8 °F 30.05 in Calm   2 mph 85% 0.00 in 0 W/m2
05:03 64.4 °F 59.8 °F 30.05 in Calm   2 mph 85% 0.00 in 0 W/m2
05:09 64.4 °F 59.8 °F 30.05 in Calm   1 mph 85% 0.00 in 0 W/m2
05:14 64.4 °F 59.8 °F 30.05 in Calm   1 mph 85% 0.00 in 0 W/m2
05:19 64.4 °F 59.9 °F 30.05 in Calm   1 mph 85.4% 0.00 in 0 W/m2
05:24 64.4 °F 60.1 °F 30.05 in Calm   1 mph 86% 0.00 in 0 W/m2
05:29 64.3 °F 60 °F 30.05 in Calm   1 mph 86% 0.00 in 0 W/m2
05:34 64.3 °F 60 °F 30.05 in Calm   1 mph 86% 0.00 in 0 W/m2
05:39 64.3 °F 60 °F 30.05 in SSW 0.1 mph 3 mph 86% 0.00 in 0 W/m2
05:44 64.3 °F 60 °F 30.05 in Calm   3 mph 86% 0.00 in 0 W/m2
05:49 64.2 °F 59.9 °F 30.05 in Calm   3 mph 86% 0.00 in 0 W/m2
05:54 64.2 °F 60 °F 30.05 in Calm   3 mph 86.2% 0.00 in 0 W/m2
05:59 64.3 °F 60.3 °F 30.04 in Calm   3 mph 87% 0.00 in 0 W/m2
06:04 64.3 °F 60.3 °F 30.04 in Calm   3 mph 86.8% 0.00 in 0 W/m2
06:09 64.4 °F 60.1 °F 30.04 in Calm     86% 0.00 in 0 W/m2
06:14 64.4 °F 60.1 °F 30.04 in SW 0.1 mph 2 mph 86% 0.00 in 0 W/m2
06:19 64.5 °F 60.2 °F 30.04 in SW 0.1 mph 3 mph 86% 0.00 in 0 W/m2
06:24 64.6 °F 60.3 °F 30.04 in WSW 0.5 mph 4 mph 86% 0.00 in 0 W/m2
06:29 64.6 °F 60.4 °F 30.04 in SSW 0.3 mph 4 mph 86% 0.00 in 0 W/m2
06:34 64.8 °F 60.5 °F 30.04 in SSW 0.3 mph 4 mph 86% 0.00 in 0 W/m2
06:39 64.8 °F 60.6 °F 30.04 in SSW 0.1 mph 2 mph 86% 0.00 in 7 W/m2
06:44 64.9 °F 60.6 °F 30.04 in SSW 0.2 mph 3 mph 86% 0.00 in 11 W/m2
06:49 65 °F 60.7 °F 30.04 in SW 0.2 mph 5 mph 86% 0.00 in 14 W/m2
06:54 65 °F 60.8 °F 30.04 in SW 0.4 mph 5 mph 86% 0.00 in 19 W/m2
06:59 65.1 °F 60.8 °F 30.04 in SW 0.3 mph 5 mph 86% 0.00 in 26 W/m2
07:04 65.2 °F 60.9 °F 30.04 in SW 1.1 mph 5 mph 86% 0.00 in 33 W/m2
07:09 65.3 °F 61.1 °F 30.04 in SW 0.7 mph 5 mph 86% 0.00 in 37 W/m2
07:14 65.5 °F 61.2 °F 30.04 in SW 1.6 mph 6 mph 86% 0.00 in 37 W/m2
07:19 65.6 °F 61.3 °F 30.04 in WSW 1.1 mph 6 mph 86% 0.00 in 39 W/m2
07:24 65.8 °F 61.5 °F 30.04 in West 1.4 mph 8 mph 86% 0.00 in 46 W/m2
07:29 66 °F 61.7 °F 30.04 in WSW 0.4 mph 8 mph 86% 0.00 in 56 W/m2
07:34 66.2 °F 61.9 °F 30.04 in SW 0.1 mph 8 mph 86% 0.00 in 60 W/m2
07:39 66.3 °F 62 °F 30.04 in SW 0.5 mph 6 mph 86% 0.00 in 62 W/m2
07:44 66.5 °F 62.1 °F 30.04 in SSW 0.3 mph 6 mph 85.5% 0.00 in 63 W/m2
07:49 66.7 °F 62.3 °F 30.04 in SW 0.9 mph 6 mph 85.7% 0.00 in 63 W/m2
07:54 66.9 °F 62.2 °F 30.03 in SW 1.4 mph 6 mph 85% 0.00 in 70 W/m2
07:59 67 °F 62.3 °F 30.03 in SW 0.4 mph 6 mph 85% 0.00 in 79 W/m2
08:00 67 °F 62.3 °F 30.03 in SW 1.5 mph 6 mph 85% 0.00 in 79 W/m2
08:09 67.3 °F 62.3 °F 30.03 in SW 1 mph 5 mph 84% 0.00 in 93 W/m2
08:14 67.4 °F 62.4 °F 30.03 in West 0.8 mph 5 mph 84% 0.00 in 100 W/m2
08:19 67.7 °F 62.7 °F 30.03 in WSW 0.5 mph 5 mph 84% 0.00 in 104 W/m2
08:24 67.9 °F 62.9 °F 30.03 in WSW 0.2 mph 5 mph 84% 0.00 in 114 W/m2
08:29 68.2 °F 63 °F 30.04 in WSW 1.2 mph 10 mph 83.6% 0.00 in 114 W/m2
08:34 68.3 °F 63 °F 30.04 in WSW 1.5 mph 10 mph 83.1% 0.00 in 105 W/m2
08:39 68.3 °F 62.9 °F 30.04 in SW 1.5 mph 9 mph 82.8% 0.00 in 102 W/m2
08:44 68.4 °F 63.1 °F 30.04 in WSW 1.4 mph 9 mph 83% 0.00 in 105 W/m2
08:49 68.5 °F 62.9 °F 30.03 in WSW 1.7 mph 9 mph 82.3% 0.00 in 139 W/m2
08:54 68.6 °F 62.9 °F 30.03 in SW 1 mph 9 mph 82% 0.00 in 229 W/m2
08:59 68.8 °F 63.3 °F 30.03 in SW 0.9 mph 9 mph 82.6% 0.00 in 281 W/m2
09:04 69.2 °F 63.5 °F 30.02 in SW 0.7 mph 9 mph 82.1% 0.00 in 316 W/m2
09:09 69.8 °F 63.7 °F 30.02 in SW 2.3 mph 11 mph 81% 0.00 in 329 W/m2
09:14 70.4 °F 63.9 °F 30.02 in SW 0.9 mph 11 mph 80% 0.00 in 320 W/m2
09:19 71 °F 64.4 °F 30.02 in WSW 1 mph 11 mph 79.8% 0.00 in 338 W/m2
09:24 71.5 °F 64.7 °F 30.02 in WSW 0.7 mph 11 mph 79% 0.00 in 348 W/m2
09:29 72.2 °F 65 °F 30.02 in SW 0.7 mph 11 mph 78.2% 0.00 in 388 W/m2
09:34 72.7 °F 65 °F 30.02 in SW 1.3 mph 11 mph 76.9% 0.00 in 399 W/m2
09:39 73.2 °F 65 °F 30.02 in SW 0.9 mph 7 mph 75.5% 0.00 in 411 W/m2
09:44 73.7 °F 65.2 °F 30.02 in WSW 1.2 mph 9 mph 75% 0.00 in 461 W/m2
09:49 74.2 °F 65.8 °F 30.02 in Calm   9 mph 75.1% 0.00 in 473 W/m2
09:54 74.8 °F 66.5 °F 30.02 in SW 0.9 mph 9 mph 75.2% 0.00 in 485 W/m2
09:59 75.4 °F 66 °F 30.02 in WSW 0.9 mph 9 mph 72.5% 0.00 in 501 W/m2
10:04 75.9 °F 66.2 °F 30.02 in WSW 1.1 mph 9 mph 71.8% 0.00 in 501 W/m2
10:09 76.4 °F 66.3 °F 30.02 in SW 2 mph 12 mph 71% 0.00 in 497 W/m2
10:14 76.7 °F 66.1 °F 30.02 in SW 0.9 mph 12 mph 69.9% 0.00 in 504 W/m2
10:19 76.9 °F 66 °F 30.02 in SSW 1.5 mph 12 mph 68.9% 0.00 in 513 W/m2
10:24 77.2 °F 66.2 °F 30.02 in WSW 1.5 mph 12 mph 68.9% 0.00 in 534 W/m2
10:29 77.4 °F 66.3 °F 30.02 in SW 2.1 mph 12 mph 68.7% 0.00 in 554 W/m2
10:34 77.6 °F 66.5 °F 30.02 in SW 1.3 mph 12 mph 68.7% 0.00 in 543 W/m2
10:39 77.8 °F 66.3 °F 30.02 in SW 1.7 mph 7 mph 67.8% 0.00 in 527 W/m2
10:44 77.7 °F 66.2 °F 30.02 in SW 1 mph 10 mph 67.7% 0.00 in 508 W/m2
10:49 77.8 °F 66.8 °F 30.02 in SW 0.6 mph 10 mph 68.9% 0.00 in 513 W/m2
10:54 78 °F 66.6 °F 30.02 in SW 1.2 mph 10 mph 67.8% 0.00 in 499 W/m2
10:59 77.9 °F 66.3 °F 30.02 in SW 1.2 mph 10 mph 67.3% 0.00 in 536 W/m2
11:04 77.9 °F 66.6 °F 30.02 in SW 0.7 mph 10 mph 68.3% 0.00 in 619 W/m2
11:09 78 °F 66.7 °F 30.01 in SW 1.2 mph 10 mph 68.4% 0.00 in 613 W/m2
11:14 78.3 °F 67 °F 30.01 in SW 2.3 mph 10 mph 68.2% 0.00 in 608 W/m2
11:19 78.8 °F 67.1 °F 30.01 in WSW 0.6 mph 10 mph 67.2% 0.00 in 599 W/m2
11:24 79.4 °F 67.8 °F 30.00 in WSW 1.4 mph 10 mph 67.6% 0.00 in 582 W/m2
11:29 79.8 °F 67.9 °F 30.00 in WSW 1.6 mph 10 mph 66.9% 0.00 in 582 W/m2
11:34 79.7 °F 66.7 °F 30.00 in WSW 2.8 mph 13 mph 64.6% 0.00 in 350 W/m2
11:39 79.4 °F 67.1 °F 29.99 in SW 1.4 mph 13 mph 66% 0.00 in 425 W/m2
11:44 79.5 °F 67.5 °F 30.00 in SW 1.3 mph 13 mph 66.7% 0.00 in 633 W/m2
11:49 79.8 °F 67.7 °F 30.00 in WSW 1.1 mph 13 mph 66.6% 0.00 in 524 W/m2
11:54 80 °F 67 °F 30.00 in WSW 2.2 mph 13 mph 64.5% 0.00 in 227 W/m2
11:59 80.1 °F 67.3 °F 30.00 in WSW 1.5 mph 13 mph 65.1% 0.00 in 167 W/m2
12:09 79.8 °F 67.4 °F 29.99 in WSW 2.1 mph 12 mph 65.7% 0.00 in 163 W/m2
12:14 79.8 °F 67.1 °F 29.99 in WSW 2.3 mph 12 mph 65.3% 0.00 in 179 W/m2
12:19 79.7 °F 67 °F 29.99 in SW 1.8 mph 12 mph 65.2% 0.00 in 183 W/m2
12:24 79.7 °F 67 °F 29.98 in SW 0.6 mph 12 mph 65.2% 0.00 in 174 W/m2
12:29 79.8 °F 67.7 °F 29.98 in WSW 2 mph 14 mph 66.5% 0.00 in 220 W/m2
12:34 79.9 °F 67.4 °F 29.98 in SW 1.4 mph 14 mph 65.8% 0.00 in 190 W/m2
12:39 80 °F 67.2 °F 29.98 in SW 1.3 mph 11 mph 65.1% 0.00 in 190 W/m2
12:44 80.1 °F 67.3 °F 29.97 in SW 1.1 mph 11 mph 65.2% 0.00 in 174 W/m2
12:49 80.1 °F 67.5 °F 29.97 in WSW 1.3 mph 11 mph 65.4% 0.00 in 171 W/m2
12:54 80.3 °F 67.9 °F 29.97 in WSW 1 mph 11 mph 65.9% 0.00 in 202 W/m2
12:59 80.4 °F 67.5 °F 29.97 in SSW 1.1 mph 11 mph 64.8% 0.00 in 202 W/m2
13:04 80.4 °F 67.7 °F 29.97 in Calm   11 mph 65.3% 0.00 in 193 W/m2
13:09 80.5 °F 68.2 °F 29.97 in Calm   1 mph 66.2% 0.00 in 200 W/m2
13:14 80.7 °F 68.2 °F 29.97 in WSW 0.8 mph 6 mph 65.8% 0.00 in 192 W/m2
13:19 80.9 °F 68.5 °F 29.97 in WSW 0.4 mph 6 mph 66% 0.00 in 169 W/m2
13:24 81.1 °F 68.4 °F 29.96 in SW 0.8 mph 6 mph 65.3% 0.00 in 156 W/m2
13:29 81.3 °F 68.2 °F 29.97 in SW 2 mph 6 mph 64.6% 0.00 in 167 W/m2
13:34 81.3 °F 68 °F 29.96 in WSW 0.4 mph 6 mph 64% 0.00 in 323 W/m2
13:39 81.4 °F 68.8 °F 29.96 in WSW 1.4 mph 6 mph 65.7% 0.00 in 186 W/m2
13:44 81.5 °F 68.3 °F 29.96 in SW 2.8 mph 13 mph 64.4% 0.00 in 146 W/m2
13:49 81.6 °F 68.4 °F 29.96 in WSW 0.8 mph 13 mph 64.3% 0.00 in 146 W/m2
13:54 81.7 °F 68.8 °F 29.95 in WSW 0.2 mph 13 mph 65% 0.00 in 135 W/m2
13:59 81.9 °F 69.1 °F 29.95 in SW 1.5 mph 13 mph 65.3% 0.00 in 128 W/m2
14:04 81.9 °F 68.6 °F 29.95 in SW 1.6 mph 13 mph 64.2% 0.00 in 125 W/m2
14:09 81.9 °F 68.3 °F 29.95 in SW 0.4 mph 6 mph 63.7% 0.00 in 167 W/m2
14:14 81.9 °F 69.1 °F 29.95 in WSW 1.2 mph 7 mph 65.3% 0.00 in 227 W/m2
14:19 82.1 °F 68.8 °F 29.95 in WSW 1.3 mph 7 mph 64.1% 0.00 in 316 W/m2
14:24 82.3 °F 69.4 °F 29.94 in WSW 0.6 mph 7 mph 65% 0.00 in 541 W/m2
14:29 82.6 °F 69.4 °F 29.94 in SW 1.4 mph 9 mph 64.5% 0.00 in 612 W/m2
14:34 82.8 °F 69 °F 29.95 in SW 2.2 mph 9 mph 63.1% 0.00 in 612 W/m2
14:39 83 °F 69.1 °F 29.95 in SW 0.9 mph 9 mph 63.1% 0.00 in 438 W/m2
14:44 83 °F 69.1 °F 29.95 in SW 2.7 mph 12 mph 63% 0.00 in 517 W/m2
14:49 83 °F 69.3 °F 29.95 in SW 2 mph 12 mph 63.4% 0.00 in 584 W/m2
14:54 83.1 °F 69.3 °F 29.95 in WSW 1.2 mph 12 mph 63.2% 0.00 in 540 W/m2
14:59 83.3 °F 69.8 °F 29.95 in SW 1 mph 12 mph 64% 0.00 in 575 W/m2
15:04 83.4 °F 69.6 °F 29.95 in WSW 1.4 mph 13 mph 63.2% 0.00 in 559 W/m2
15:09 83.6 °F 69.8 °F 29.95 in WSW 0.9 mph 13 mph 63.2% 0.00 in 541 W/m2
15:14 83.8 °F 70.1 °F 29.95 in WSW 0.7 mph 13 mph 63.5% 0.00 in 520 W/m2
15:19 83.9 °F 69.9 °F 29.95 in WSW 2.5 mph 13 mph 62.8% 0.00 in 480 W/m2
15:24 84 °F 69.9 °F 29.95 in West 0.6 mph 13 mph 62.8% 0.00 in 483 W/m2
15:29 84 °F 70 °F 29.94 in WNW 0.4 mph 13 mph 63% 0.00 in 520 W/m2
15:34 84 °F 70 °F 29.93 in West 1 mph 13 mph 62.9% 0.00 in 494 W/m2
15:39 84.1 °F 70.4 °F 29.93 in West 0.2 mph 11 mph 63.5% 0.00 in 503 W/m2
15:44 84.2 °F 70.4 °F 29.93 in WSW 2.1 mph 11 mph 63.2% 0.00 in 483 W/m2
15:49 84.3 °F 69.9 °F 29.93 in WSW 2.2 mph 11 mph 62% 0.00 in 329 W/m2
15:54 84.2 °F 69.9 °F 29.93 in WSW 1.7 mph 11 mph 62.3% 0.00 in 311 W/m2
15:59 83.8 °F 69.9 °F 29.93 in SW 0.5 mph 11 mph 63.1% 0.00 in 178 W/m2
16:09 83.1 °F 69.8 °F 29.92 in SW 1.8 mph 9 mph 64.3% 0.00 in 113 W/m2
16:14 82.8 °F 69.6 °F 29.92 in WSW 2.3 mph 10 mph 64.3% 0.00 in 102 W/m2
16:19 82.7 °F 69.9 °F 29.93 in SW 1 mph 10 mph 65.4% 0.00 in 107 W/m2
16:24 82.6 °F 69.5 °F 29.92 in SW 1.7 mph 10 mph 64.7% 0.00 in 123 W/m2
16:29 82.5 °F 69.6 °F 29.92 in WSW 0.6 mph 10 mph 65.1% 0.00 in 137 W/m2
16:34 82.4 °F 69.6 °F 29.93 in WSW 2.2 mph 13 mph 65.2% 0.00 in 130 W/m2
16:39 82.3 °F 69.6 °F 29.93 in WNW 0.4 mph 13 mph 65.4% 0.00 in 114 W/m2
16:44 82.1 °F 69.6 °F 29.93 in WSW 1.2 mph 13 mph 65.8% 0.00 in 113 W/m2
16:49 82 °F 69.7 °F 29.93 in WSW 0.1 mph 13 mph 66.4% 0.00 in 104 W/m2
16:54 81.9 °F 70.1 °F 29.92 in WSW 0.2 mph 13 mph 67.3% 0.00 in 111 W/m2
16:59 81.9 °F 70.3 °F 29.92 in WSW 1 mph 13 mph 68% 0.00 in 100 W/m2
17:04 81.9 °F 69.9 °F 29.92 in WSW 0.4 mph 13 mph 67.1% 0.00 in 76 W/m2
17:09 81.9 °F 69.8 °F 29.92 in Calm   3 mph 66.8% 0.00 in 60 W/m2
17:14 81.8 °F 69.8 °F 29.92 in WSW 0.9 mph 6 mph 67% 0.00 in 54 W/m2
17:19 81.7 °F 69.7 °F 29.92 in WSW 0.3 mph 6 mph 67% 0.00 in 53 W/m2
17:24 81.6 °F 69.6 °F 29.92 in West 0.8 mph 6 mph 67% 0.00 in 47 W/m2
17:29 81.4 °F 69.7 °F 29.92 in Calm   6 mph 67.7% 0.00 in 44 W/m2
17:34 81.3 °F 69.8 °F 29.92 in West 0.1 mph 6 mph 68% 0.00 in 42 W/m2
17:39 81.1 °F 69.7 °F 29.93 in WSW 0.2 mph 5 mph 68.2% 0.00 in 40 W/m2
17:44 81 °F 69.6 °F 29.93 in West 1.3 mph 10 mph 68.4% 0.00 in 39 W/m2
17:49 80.9 °F 69.5 °F 29.93 in Calm   10 mph 68.3% 0.00 in 37 W/m2
17:54 80.8 °F 69.9 °F 29.93 in WSW 0.1 mph 10 mph 69.7% 0.00 in 33 W/m2
17:59 80.6 °F 70 °F 29.93 in West 0.2 mph 10 mph 70% 0.00 in 32 W/m2
18:04 80.5 °F 69.8 °F 29.93 in Calm   10 mph 70% 0.00 in 30 W/m2
18:09 80.4 °F 69.7 °F 29.93 in West 0.1 mph 1 mph 70% 0.00 in 28 W/m2
18:14 80.2 °F 69.5 °F 29.93 in WSW 0.1 mph 3 mph 70% 0.00 in 25 W/m2
18:19 80 °F 69.7 °F 29.93 in WSW 0.5 mph 5 mph 70.7% 0.00 in 23 W/m2
18:24 79.9 °F 69.6 °F 29.93 in WSW 0.2 mph 5 mph 71% 0.00 in 21 W/m2
18:29 79.7 °F 69.4 °F 29.93 in West 0.2 mph 5 mph 71% 0.00 in 19 W/m2
18:34 79.5 °F 69.6 °F 29.93 in Calm   5 mph 71.8% 0.00 in 18 W/m2
18:39 79.4 °F 69.6 °F 29.93 in Calm     72% 0.00 in 16 W/m2
18:44 79.2 °F 69.4 °F 29.93 in West 0.1 mph 3 mph 72% 0.00 in 12 W/m2
18:49 79 °F 69.2 °F 29.93 in West 0.1 mph 3 mph 72% 0.00 in 9 W/m2
18:54 78.8 °F 69.2 °F 29.94 in Calm   3 mph 72.4% 0.00 in 5 W/m2
18:59 78.6 °F 69.3 °F 29.94 in Calm   3 mph 73% 0.00 in 0 W/m2
19:04 78.4 °F 69.1 °F 29.94 in Calm   3 mph 73% 0.00 in 0 W/m2
19:09 78.2 °F 68.9 °F 29.94 in Calm     73% 0.00 in 0 W/m2
19:14 78.1 °F 68.9 °F 29.94 in Calm   3 mph 73.5% 0.00 in 0 W/m2
19:19 77.9 °F 68.9 °F 29.93 in Calm   3 mph 74% 0.00 in 0 W/m2
19:24 77.7 °F 68.7 °F 29.94 in Calm   3 mph 74% 0.00 in 0 W/m2
19:29 77.5 °F 68.9 °F 29.94 in Calm   3 mph 74.9% 0.00 in 0 W/m2
19:34 77.3 °F 68.8 °F 29.94 in Calm   3 mph 75% 0.00 in 0 W/m2
19:39 77.1 °F 68.6 °F 29.94 in Calm     75% 0.00 in 0 W/m2
19:44 77 °F 68.8 °F 29.94 in Calm     76% 0.00 in 0 W/m2
19:49 76.8 °F 68.7 °F 29.94 in Calm   1 mph 76% 0.00 in 0 W/m2
19:54 76.7 °F 68.5 °F 29.94 in Calm   1 mph 76% 0.00 in 0 W/m2
19:59 76.6 °F 68.6 °F 29.94 in Calm   1 mph 76.4% 0.00 in 0 W/m2
20:09 76.3 °F 68.6 °F 29.94 in West 0.2 mph 4 mph 77% 0.00 in 0 W/m2
20:14 76.2 °F 68.4 °F 29.95 in Calm   4 mph 77% 0.00 in 0 W/m2
20:19 76 °F 68.3 °F 29.95 in Calm   4 mph 77% 0.00 in 0 W/m2
20:24 75.9 °F 68.3 °F 29.95 in Calm   4 mph 77.3% 0.00 in 0 W/m2
20:29 75.8 °F 68.5 °F 29.95 in Calm   4 mph 78% 0.00 in 0 W/m2
20:34 75.7 °F 68.3 °F 29.96 in Calm   4 mph 78% 0.00 in 0 W/m2
20:39 75.6 °F 68.2 °F 29.96 in Calm   1 mph 78% 0.00 in 0 W/m2
20:44 75.5 °F 68.3 °F 29.96 in SW 0.1 mph 4 mph 78.5% 0.00 in 0 W/m2
20:49 75.3 °F 68.4 °F 29.96 in Calm   4 mph 79% 0.00 in 0 W/m2
20:54 75.2 °F 68.2 °F 29.96 in Calm   4 mph 78.8% 0.00 in 0 W/m2
20:59 75.2 °F 68.2 °F 29.96 in WSW 0.3 mph 4 mph 79% 0.00 in 0 W/m2
21:04 75.1 °F 68.2 °F 29.96 in WSW 0.1 mph 4 mph 79% 0.00 in 0 W/m2
21:09 75.1 °F 68.5 °F 29.96 in Calm   2 mph 79.9% 0.00 in 0 W/m2
21:14 75.1 °F 68.5 °F 29.96 in Calm   2 mph 80% 0.00 in 0 W/m2
21:19 75.1 °F 68.5 °F 29.96 in Calm   2 mph 80% 0.00 in 0 W/m2
21:24 75.1 °F 68.3 °F 29.96 in Calm   2 mph 79.5% 0.00 in 0 W/m2
21:29 75 °F 68.1 °F 29.96 in Calm   2 mph 79% 0.00 in 0 W/m2
21:34 75 °F 68.1 °F 29.96 in Calm   2 mph 79% 0.00 in 0 W/m2
21:39 75 °F 68 °F 29.96 in WSW 0.2 mph 2 mph 79% 0.00 in 0 W/m2
21:44 74.9 °F 68 °F 29.96 in WSW 0.4 mph 3 mph 79% 0.00 in 0 W/m2
21:49 74.9 °F 68.3 °F 29.96 in WSW 0.5 mph 3 mph 80% 0.00 in 0 W/m2
21:54 74.8 °F 68.2 °F 29.96 in WSW 0.1 mph 3 mph 80% 0.00 in 0 W/m2
21:59 74.7 °F 68.2 °F 29.96 in WSW 0.5 mph 5 mph 80% 0.00 in 0 W/m2
22:04 74.6 °F 68 °F 29.96 in Calm   5 mph 80% 0.00 in 0 W/m2
22:09 74.5 °F 67.9 °F 29.96 in WSW 0.2 mph 4 mph 80% 0.00 in 0 W/m2
22:14 74.3 °F 68 °F 29.96 in Calm   4 mph 80.6% 0.00 in 0 W/m2
22:19 74.2 °F 68 °F 29.95 in WSW 0.2 mph 4 mph 81% 0.00 in 0 W/m2
22:24 74.1 °F 67.9 °F 29.95 in Calm   4 mph 81% 0.00 in 0 W/m2
22:29 74.1 °F 67.9 °F 29.95 in WSW 0.5 mph 6 mph 81% 0.00 in 0 W/m2
22:34 74 °F 67.8 °F 29.95 in Calm   6 mph 81% 0.00 in 0 W/m2
22:39 74 °F 67.8 °F 29.95 in WSW 0.2 mph 5 mph 81% 0.00 in 0 W/m2
22:44 74 °F 67.9 °F 29.95 in WSW 0.1 mph 5 mph 81% 0.00 in 0 W/m2
22:49 74.1 °F 67.9 °F 29.95 in Calm   5 mph 81% 0.00 in 0 W/m2
22:54 74.1 °F 67.9 °F 29.95 in SW 0.3 mph 7 mph 81% 0.00 in 0 W/m2
22:59 74.1 °F 67.9 °F 29.95 in WSW 0.1 mph 7 mph 81% 0.00 in 0 W/m2
23:04 74.1 °F 67.9 °F 29.95 in Calm   7 mph 81% 0.00 in 0 W/m2
23:09 74.1 °F 67.9 °F 29.95 in WSW 0.1 mph 3 mph 81% 0.00 in 0 W/m2
23:14 74.1 °F 67.9 °F 29.95 in Calm   3 mph 81% 0.00 in 0 W/m2
23:19 74.1 °F 67.8 °F 29.95 in Calm   3 mph 80.8% 0.00 in 0 W/m2
23:24 74.1 °F 67.9 °F 29.95 in Calm   3 mph 81% 0.00 in 0 W/m2
23:29 74 °F 67.8 °F 29.95 in Calm   3 mph 80.8% 0.00 in 0 W/m2
23:34 74 °F 67.8 °F 29.95 in Calm   3 mph 81% 0.00 in 0 W/m2
Hartford County Weather
Compliments of Weather Underground - 4 mb